Katerina — WDG6939 — position and weather

sailwx.info

Track history (hours):
 
Tides and Currents Weather Stations Pressure Air Temp Water Temp Dewpoint Dewpoint Depression Visibility Wind Speed Wind Dir Waves Ship Positions

Katerina

Owner: Shill, David B, Spokane, WA. More information available from US FCC via Universal Licensing System and Coast Guard Vessel Documentation Center.

Last reported at 2017-Sep-23 19:36 UTC. Time now 2017-Oct-22 19:04 UTC.
Position N 48°23' W 123°01'.
Warning: this ship's position is 28 days out of date.

Length 12 m.

Type: Sailing vessel. MMSI: 367562250.

Date/timePositionNaut miles runAvg speedWind from/ knotsBaromVisibWave heightAir tempDewpointWater temp
2017-Sep-23 19:36N 48°23' W 123°01'  
2017-Sep-21 01:57N 48°51' W 123°30'0 0.1
2017-Sep-21 01:27N 48°51' W 123°30'0 0.0
2017-Sep-21 00:57N 48°51' W 123°30'0 0.0
2017-Sep-21 00:27N 48°51' W 123°30'0 0.0
2017-Sep-20 23:57N 48°51' W 123°30'0 0.0
2017-Sep-20 23:27N 48°51' W 123°30'0 0.0
2017-Sep-20 22:57N 48°51' W 123°30'0 0.3
2017-Sep-20 22:30N 48°51' W 123°30'0 0.2
2017-Sep-20 22:00N 48°51' W 123°30'2 4.1
2017-Sep-20 21:30N 48°50' W 123°27'2 4.3
2017-Sep-20 21:00N 48°51' W 123°24'1 1.9
2017-Sep-20 20:28N 48°50' W 123°24'0 0.0
2017-Sep-19 23:02N 48°50' W 123°23'0 0.0
2017-Sep-19 22:59N 48°50' W 123°23'1 1.2
2017-Sep-19 22:30N 48°50' W 123°24'2 4.2
2017-Sep-19 22:00N 48°48' W 123°22'2 4.5
2017-Sep-19 21:30N 48°50' W 123°19'2 3.7
2017-Sep-19 21:00N 48°49' W 123°16'3 5.2
2017-Sep-19 20:30N 48°47' W 123°14'1 0.0
2017-Sep-17 21:24N 48°46' W 123°14'3 2.6
2017-Sep-17 20:16N 48°43' W 123°11'4 6.4
2017-Sep-17 19:35N 48°42' W 123°17'1 5.8
2017-Sep-17 19:28N 48°42' W 123°18'2 4.1
2017-Sep-17 18:56N 48°40' W 123°21'2 4.2
2017-Sep-17 18:30N 48°39' W 123°21'0 0.0
2017-Sep-17 01:12N 48°38' W 123°20'0 0.1
2017-Sep-16 23:51N 48°38' W 123°21'2 4.0
2017-Sep-16 23:25N 48°37' W 123°20'3 3.5
2017-Sep-16 22:26N 48°33' W 123°18'2 5.6
2017-Sep-16 22:00N 48°31' W 123°17'3 5.4
2017-Sep-16 21:30N 48°29' W 123°15'2 4.8
2017-Sep-16 21:00N 48°26' W 123°16'2 5.0
2017-Sep-16 20:30N 48°24' W 123°18'3 6.5
2017-Sep-16 20:00N 48°24' W 123°23'1 2.4
2017-Sep-16 19:30N 48°25' W 123°23'  
2017-Sep-14 01:03N 48°25' W 123°22'0 0.0
2017-Sep-14 01:00N 48°25' W 123°22'0 0.9
2017-Sep-14 00:30N 48°25' W 123°23'1 1.7
2017-Sep-14 00:00N 48°25' W 123°23'3 5.6
2017-Sep-13 23:30N 48°24' W 123°20'3 6.4
2017-Sep-13 23:00N 48°24' W 123°15'3 5.7
2017-Sep-13 22:30N 48°27' W 123°13'3 6.6
2017-Sep-13 22:00N 48°30' W 123°13'1 2.0
2017-Sep-13 21:31N 48°31' W 123°13'0 0.8
2017-Sep-13 21:00N 48°31' W 123°12'1 2.0
2017-Sep-13 20:31N 48°31' W 123°11'2 4.5
2017-Sep-13 20:01N 48°33' W 123°12'  
Track history (hours):
 
Tides and Currents Weather Stations Pressure Air Temp Water Temp Dewpoint Dewpoint Depression Visibility Wind Speed Wind Dir Waves Ship Positions

Katerina

Owner: Shill, David B, Spokane, WA. More information available from US FCC via Universal Licensing System and Coast Guard Vessel Documentation Center.

Last reported at 2017-Sep-23 19:36 UTC. Time now 2017-Oct-22 19:04 UTC.
Position N 48°23' W 123°01'.
Warning: this ship's position is 28 days out of date.

Length 12 m.

Type: Sailing vessel. MMSI: 367562250.

Date/timePositionNaut miles runAvg speedWind from/ knotsBaromVisibWave heightAir tempDewpointWater temp
2017-Sep-23 19:36N 48°23' W 123°01'  
2017-Sep-21 01:57N 48°51' W 123°30'0 0.1
2017-Sep-21 01:27N 48°51' W 123°30'0 0.0
2017-Sep-21 00:57N 48°51' W 123°30'0 0.0
2017-Sep-21 00:27N 48°51' W 123°30'0 0.0
2017-Sep-20 23:57N 48°51' W 123°30'0 0.0
2017-Sep-20 23:27N 48°51' W 123°30'0 0.0
2017-Sep-20 22:57N 48°51' W 123°30'0 0.3
2017-Sep-20 22:30N 48°51' W 123°30'0 0.2
2017-Sep-20 22:00N 48°51' W 123°30'2 4.1
2017-Sep-20 21:30N 48°50' W 123°27'2 4.3
2017-Sep-20 21:00N 48°51' W 123°24'1 1.9
2017-Sep-20 20:28N 48°50' W 123°24'0 0.0
2017-Sep-19 23:02N 48°50' W 123°23'0 0.0
2017-Sep-19 22:59N 48°50' W 123°23'1 1.2
2017-Sep-19 22:30N 48°50' W 123°24'2 4.2
2017-Sep-19 22:00N 48°48' W 123°22'2 4.5
2017-Sep-19 21:30N 48°50' W 123°19'2 3.7
2017-Sep-19 21:00N 48°49' W 123°16'3 5.2
2017-Sep-19 20:30N 48°47' W 123°14'1 0.0
2017-Sep-17 21:24N 48°46' W 123°14'3 2.6
2017-Sep-17 20:16N 48°43' W 123°11'4 6.4
2017-Sep-17 19:35N 48°42' W 123°17'1 5.8
2017-Sep-17 19:28N 48°42' W 123°18'2 4.1
2017-Sep-17 18:56N 48°40' W 123°21'2 4.2
2017-Sep-17 18:30N 48°39' W 123°21'0 0.0
2017-Sep-17 01:12N 48°38' W 123°20'0 0.1
2017-Sep-16 23:51N 48°38' W 123°21'2 4.0
2017-Sep-16 23:25N 48°37' W 123°20'3 3.5
2017-Sep-16 22:26N 48°33' W 123°18'2 5.6
2017-Sep-16 22:00N 48°31' W 123°17'3 5.4
2017-Sep-16 21:30N 48°29' W 123°15'2 4.8
2017-Sep-16 21:00N 48°26' W 123°16'2 5.0
2017-Sep-16 20:30N 48°24' W 123°18'3 6.5
2017-Sep-16 20:00N 48°24' W 123°23'1 2.4
2017-Sep-16 19:30N 48°25' W 123°23'  
2017-Sep-14 01:03N 48°25' W 123°22'0 0.0
2017-Sep-14 01:00N 48°25' W 123°22'0 0.9
2017-Sep-14 00:30N 48°25' W 123°23'1 1.7
2017-Sep-14 00:00N 48°25' W 123°23'3 5.6
2017-Sep-13 23:30N 48°24' W 123°20'3 6.4
2017-Sep-13 23:00N 48°24' W 123°15'3 5.7
2017-Sep-13 22:30N 48°27' W 123°13'3 6.6
2017-Sep-13 22:00N 48°30' W 123°13'1 2.0
2017-Sep-13 21:31N 48°31' W 123°13'0 0.8
2017-Sep-13 21:00N 48°31' W 123°12'1 2.0
2017-Sep-13 20:31N 48°31' W 123°11'2 4.5
2017-Sep-13 20:01N 48°33' W 123°12'  

Dump ship's entire track history